Time;durP1;ratioP1;P1;durP2;ratioP2;P2;SDS_P1;SDS_P2;PMS_P1;PMS_P2;Temp;Humidity;BMP_temperature;BMP_pressure;BME280_temperature;BME280_humidity;BME280_pressure;Samples;Min_cycle;Max_cycle;Signal;HPM_P1;HPM_P2
2023/12/24 00:00:22;;;;;;;;;;;17.40;45.20;;;;;;1537829;75;774;-74
2023/12/24 00:02:24;;;;;;;;;;;17.30;45.30;;;;;;1576071;74;792;-72
2023/12/24 00:04:26;;;;;;;;;;;17.40;45.20;;;;;;1581169;74;1220;-72
2023/12/24 00:06:28;;;;;;;;;;;17.30;45.20;;;;;;1575147;74;1972;-71
2023/12/24 00:08:29;;;;;;;;;;;17.30;45.10;;;;;;1571594;74;773;-70
2023/12/24 00:10:31;;;;;;;;;;;17.30;45.20;;;;;;1568027;74;666;-72
2023/12/24 00:12:33;;;;;;;;;;;17.30;45.20;;;;;;1578899;74;763;-72
2023/12/24 00:14:37;;;;;;;;;;;17.40;45.20;;;;;;1567199;74;1137;-73
2023/12/24 00:16:42;;;;;;;;;;;17.40;45.20;;;;;;1571652;74;774;-72
2023/12/24 00:18:43;;;;;;;;;;;17.40;45.20;;;;;;1563101;74;764;-69
2023/12/24 00:20:46;;;;;;;;;;;17.40;45.20;;;;;;1561152;74;763;-73
2023/12/24 00:22:49;;;;;;;;;;;17.40;45.20;;;;;;1562839;74;793;-74
2023/12/24 00:24:51;;;;;;;;;;;17.30;45.20;;;;;;1555629;74;1160;-72
2023/12/24 00:26:53;;;;;;;;;;;17.40;45.30;;;;;;1564571;74;1925;-72
2023/12/24 00:28:55;;;;;;;;;;;17.40;45.20;;;;;;1559013;75;742;-71
2023/12/24 00:30:56;;;;;;;;;;;17.40;45.20;;;;;;1564114;75;642;-71
2023/12/24 00:32:59;;;;;;;;;;;17.30;45.20;;;;;;1555575;74;788;-70
2023/12/24 00:35:00;;;;;;;;;;;17.40;45.20;;;;;;1560518;75;1153;-73
2023/12/24 00:37:02;;;;;;;;;;;17.40;45.20;;;;;;1554840;75;768;-72
2023/12/24 00:39:04;;;;;;;;;;;17.30;45.20;;;;;;1561436;74;773;-70
2023/12/24 00:41:06;;;;;;;;;;;17.30;45.20;;;;;;1562535;76;758;-72
2023/12/24 00:43:08;;;;;;;;;;;17.30;45.20;;;;;;1560823;74;786;-72
2023/12/24 00:45:10;;;;;;;;;;;17.40;45.20;;;;;;1558988;74;1174;-72
2023/12/24 00:47:12;;;;;;;;;;;17.40;45.20;;;;;;1561837;76;1934;-69
2023/12/24 00:49:14;;;;;;;;;;;17.40;45.20;;;;;;1563103;75;859;-72
2023/12/24 00:51:15;;;;;;;;;;;17.30;45.20;;;;;;1564081;75;756;-71
2023/12/24 00:53:17;;;;;;;;;;;17.40;45.20;;;;;;1564144;75;764;-70
2023/12/24 00:55:19;;;;;;;;;;;17.40;45.20;;;;;;1559190;75;1197;-72
2023/12/24 00:57:21;;;;;;;;;;;17.30;45.20;;;;;;1561909;74;747;-72
2023/12/24 00:59:23;;;;;;;;;;;17.40;45.20;;;;;;1567568;74;766;-73
2023/12/24 01:01:25;;;;;;;;;;;17.40;45.20;;;;;;1581154;74;763;-73
2023/12/24 01:03:27;;;;;;;;;;;17.40;45.20;;;;;;1573649;74;1397;-72
2023/12/24 01:05:29;;;;;;;;;;;17.40;45.20;;;;;;1576645;74;1090;-71
2023/12/24 01:07:30;;;;;;;;;;;17.30;45.20;;;;;;1567317;74;1942;-70
2023/12/24 01:09:32;;;;;;;;;;;17.30;45.20;;;;;;1572475;74;664;-72
2023/12/24 01:11:34;;;;;;;;;;;17.40;45.20;;;;;;1570507;74;791;-72
2023/12/24 01:13:36;;;;;;;;;;;17.40;45.20;;;;;;1563116;74;686;-72
2023/12/24 01:15:38;;;;;;;;;;;17.50;45.40;;;;;;1585303;74;1172;-72
2023/12/24 01:17:40;;;;;;;;;;;17.40;45.20;;;;;;1564499;74;789;-71
2023/12/24 01:19:42;;;;;;;;;;;17.40;45.20;;;;;;1570531;74;816;-69
2023/12/24 01:21:44;;;;;;;;;;;17.40;45.20;;;;;;1575167;74;777;-69
2023/12/24 01:23:46;;;;;;;;;;;17.30;45.20;;;;;;1556457;74;1150;-74
2023/12/24 01:25:48;;;;;;;;;;;17.40;45.20;;;;;;1562468;75;796;-72
2023/12/24 01:27:52;;;;;;;;;;;17.40;45.20;;;;;;1549321;74;1943;-72
2023/12/24 01:29:54;;;;;;;;;;;17.40;45.20;;;;;;1556247;74;1531;-71
2023/12/24 01:31:56;;;;;;;;;;;17.40;45.20;;;;;;1560353;74;762;-72
2023/12/24 01:33:58;;;;;;;;;;;17.30;45.20;;;;;;1561043;74;1166;-72
2023/12/24 01:36:00;;;;;;;;;;;17.40;45.20;;;;;;1563080;74;785;-72
2023/12/24 01:38:02;;;;;;;;;;;17.30;45.20;;;;;;1557504;74;758;-72
2023/12/24 01:40:04;;;;;;;;;;;17.40;45.20;;;;;;1559713;75;623;-72
2023/12/24 01:42:06;;;;;;;;;;;17.30;45.20;;;;;;1565149;74;746;-71
2023/12/24 01:44:07;;;;;;;;;;;17.30;45.20;;;;;;1563205;75;1177;-69
2023/12/24 01:46:09;;;;;;;;;;;17.30;45.20;;;;;;1560860;74;767;-71
2023/12/24 01:48:12;;;;;;;;;;;17.40;45.20;;;;;;1558357;75;1948;-73
2023/12/24 01:50:14;;;;;;;;;;;17.40;45.20;;;;;;1562308;75;753;-72
2023/12/24 01:52:16;;;;;;;;;;;17.40;45.20;;;;;;1559375;74;791;-72
2023/12/24 01:54:18;;;;;;;;;;;17.30;45.20;;;;;;1554646;75;1150;-69
2023/12/24 01:56:22;;;;;;;;;;;17.30;45.20;;;;;;1560446;74;853;-75
2023/12/24 01:58:24;;;;;;;;;;;17.30;45.20;;;;;;1559785;75;790;-72
2023/12/24 02:00:26;;;;;;;;;;;17.30;45.30;;;;;;1561376;74;1459;-72
2023/12/24 02:02:28;;;;;;;;;;;17.30;45.20;;;;;;1557737;74;795;-73
2023/12/24 02:04:30;;;;;;;;;;;17.30;45.20;;;;;;1559411;74;1240;-71
2023/12/24 02:06:33;;;;;;;;;;;17.30;45.20;;;;;;1560069;74;820;-71
2023/12/24 02:08:36;;;;;;;;;;;17.40;45.20;;;;;;1560060;74;1924;-72
2023/12/24 02:10:38;;;;;;;;;;;17.30;45.10;;;;;;1564005;74;780;-72
2023/12/24 02:12:40;;;;;;;;;;;17.40;45.20;;;;;;1560030;74;802;-74
2023/12/24 02:14:42;;;;;;;;;;;17.30;45.20;;;;;;1563129;74;1165;-69
2023/12/24 02:16:43;;;;;;;;;;;17.30;45.20;;;;;;1556283;75;772;-72
2023/12/24 02:18:45;;;;;;;;;;;17.30;45.20;;;;;;1569487;74;834;-74
2023/12/24 02:20:47;;;;;;;;;;;17.30;45.20;;;;;;1558639;75;805;-72
2023/12/24 02:22:49;;;;;;;;;;;17.30;45.20;;;;;;1549464;74;820;-70
2023/12/24 02:24:51;;;;;;;;;;;17.30;45.20;;;;;;1552390;74;1169;-72
2023/12/24 02:27:00;;;;;;;;;;;17.30;45.20;;;;;;1560882;74;776;-70
2023/12/24 02:29:02;;;;;;;;;;;17.30;45.20;;;;;;1557488;74;1924;-71
2023/12/24 02:31:05;;;;;;;;;;;17.30;45.20;;;;;;1566053;74;772;-70
2023/12/24 02:33:06;;;;;;;;;;;17.30;45.20;;;;;;1560268;74;753;-74
2023/12/24 02:35:08;;;;;;;;;;;17.40;45.20;;;;;;1553100;74;1169;-71
2023/12/24 02:37:10;;;;;;;;;;;17.30;45.20;;;;;;1558096;75;760;-72
2023/12/24 02:39:12;;;;;;;;;;;17.30;45.20;;;;;;1560914;74;564;-71
2023/12/24 02:41:14;;;;;;;;;;;17.40;45.20;;;;;;1515608;77;786;-72
2023/12/24 02:43:16;;;;;;;;;;;17.30;45.20;;;;;;1536940;75;695;-69
2023/12/24 02:45:18;;;;;;;;;;;17.30;45.20;;;;;;1540583;76;1161;-75
2023/12/24 02:47:20;;;;;;;;;;;17.30;45.20;;;;;;1564984;74;1938;-70
2023/12/24 02:49:21;;;;;;;;;;;17.30;45.20;;;;;;1564449;74;949;-74
2023/12/24 02:51:23;;;;;;;;;;;17.30;45.20;;;;;;1534685;75;913;-70
2023/12/24 02:53:25;;;;;;;;;;;17.30;45.20;;;;;;1529145;75;790;-70
2023/12/24 02:55:27;;;;;;;;;;;17.30;45.20;;;;;;1570397;74;1468;-71
2023/12/24 02:57:29;;;;;;;;;;;17.30;45.20;;;;;;1525824;76;766;-70
2023/12/24 02:59:31;;;;;;;;;;;17.30;45.20;;;;;;1535473;76;789;-72
2023/12/24 03:01:33;;;;;;;;;;;17.30;45.20;;;;;;1568711;74;741;-71
2023/12/24 03:03:35;;;;;;;;;;;17.30;45.20;;;;;;1566544;74;785;-72
2023/12/24 03:05:37;;;;;;;;;;;17.30;45.20;;;;;;1573220;74;1147;-73
2023/12/24 03:07:39;;;;;;;;;;;17.40;45.20;;;;;;1573017;74;1935;-73
2023/12/24 03:09:41;;;;;;;;;;;17.30;45.20;;;;;;1558243;74;822;-68
2023/12/24 03:11:43;;;;;;;;;;;17.30;45.20;;;;;;1560253;74;746;-69
2023/12/24 03:13:45;;;;;;;;;;;17.30;45.20;;;;;;1521840;75;1177;-70
2023/12/24 03:15:46;;;;;;;;;;;17.30;45.20;;;;;;1528901;75;804;-70
2023/12/24 03:17:48;;;;;;;;;;;17.40;45.10;;;;;;1540615;75;680;-73
2023/12/24 03:19:50;;;;;;;;;;;17.30;45.20;;;;;;1539809;75;758;-69
2023/12/24 03:21:52;;;;;;;;;;;17.30;45.20;;;;;;1526857;75;773;-73
2023/12/24 03:23:54;;;;;;;;;;;17.30;45.20;;;;;;1539232;76;1157;-74
2023/12/24 03:25:56;;;;;;;;;;;17.30;45.20;;;;;;1534428;76;794;-72
2023/12/24 03:27:58;;;;;;;;;;;17.30;45.20;;;;;;1558250;74;1929;-71
2023/12/24 03:29:59;;;;;;;;;;;17.30;45.20;;;;;;1573044;74;752;-71
2023/12/24 03:32:01;;;;;;;;;;;17.30;45.20;;;;;;1579872;74;778;-71
2023/12/24 03:34:03;;;;;;;;;;;17.30;45.20;;;;;;1575370;74;1133;-68
2023/12/24 03:36:07;;;;;;;;;;;17.30;45.20;;;;;;1564563;74;794;-72
2023/12/24 03:38:09;;;;;;;;;;;17.30;45.20;;;;;;1539671;76;747;-74
2023/12/24 03:40:11;;;;;;;;;;;17.30;45.20;;;;;;1531784;76;758;-71
2023/12/24 03:42:13;;;;;;;;;;;17.30;45.20;;;;;;1563049;75;793;-73
2023/12/24 03:44:15;;;;;;;;;;;17.30;45.20;;;;;;1563076;75;1146;-70
2023/12/24 03:46:20;;;;;;;;;;;17.20;45.00;;;;;;1556159;74;753;-72
2023/12/24 03:48:22;;;;;;;;;;;17.30;45.20;;;;;;1561490;74;1943;-74
2023/12/24 03:50:23;;;;;;;;;;;17.20;45.10;;;;;;1560176;75;754;-73
2023/12/24 03:52:25;;;;;;;;;;;17.30;45.20;;;;;;1564244;74;1502;-71
2023/12/24 03:54:27;;;;;;;;;;;17.20;45.00;;;;;;1561031;74;1153;-69
2023/12/24 03:56:29;;;;;;;;;;;17.30;45.20;;;;;;1554007;74;706;-69
2023/12/24 03:58:31;;;;;;;;;;;17.30;45.20;;;;;;1555609;75;754;-72
2023/12/24 04:00:33;;;;;;;;;;;17.30;45.10;;;;;;1556510;75;746;-72
2023/12/24 04:02:35;;;;;;;;;;;17.30;45.10;;;;;;1561955;76;757;-72
2023/12/24 04:04:37;;;;;;;;;;;17.30;45.30;;;;;;1552910;75;1229;-74
2023/12/24 04:06:38;;;;;;;;;;;17.20;45.00;;;;;;1559347;75;820;-72
2023/12/24 04:08:40;;;;;;;;;;;17.30;45.20;;;;;;1554720;76;1931;-73
2023/12/24 04:10:42;;;;;;;;;;;17.30;45.20;;;;;;1561967;75;784;-70
2023/12/24 04:12:44;;;;;;;;;;;17.30;45.20;;;;;;1562413;74;765;-72
2023/12/24 04:14:46;;;;;;;;;;;17.30;45.20;;;;;;1561217;74;1241;-72
2023/12/24 04:16:48;;;;;;;;;;;17.20;45.10;;;;;;1562777;74;779;-70
2023/12/24 04:18:50;;;;;;;;;;;17.30;45.20;;;;;;1555643;75;763;-72
2023/12/24 04:20:52;;;;;;;;;;;17.20;45.00;;;;;;1560120;75;797;-72
2023/12/24 04:22:54;;;;;;;;;;;17.30;45.20;;;;;;1561683;75;651;-72
2023/12/24 04:24:55;;;;;;;;;;;17.20;45.10;;;;;;1563058;74;1166;-70
2023/12/24 04:26:57;;;;;;;;;;;17.30;45.20;;;;;;1563553;75;774;-72
2023/12/24 04:28:59;;;;;;;;;;;17.30;45.20;;;;;;1558147;74;1942;-71
2023/12/24 04:31:01;;;;;;;;;;;17.20;45.10;;;;;;1559179;75;800;-72
2023/12/24 04:33:03;;;;;;;;;;;17.20;45.10;;;;;;1558638;75;782;-72
2023/12/24 04:35:06;;;;;;;;;;;17.20;45.10;;;;;;1563928;74;1168;-72
2023/12/24 04:37:08;;;;;;;;;;;17.20;45.10;;;;;;1569143;75;751;-71
2023/12/24 04:39:10;;;;;;;;;;;17.30;45.20;;;;;;1560180;75;839;-74
2023/12/24 04:41:16;;;;;;;;;;;17.20;45.10;;;;;;1563989;74;788;-71
2023/12/24 04:43:17;;;;;;;;;;;17.30;45.20;;;;;;1552066;74;754;-73
2023/12/24 04:45:19;;;;;;;;;;;17.30;45.30;;;;;;1563577;74;1153;-70
2023/12/24 04:47:21;;;;;;;;;;;17.20;45.10;;;;;;1558459;74;1410;-72
2023/12/24 04:49:23;;;;;;;;;;;17.20;45.10;;;;;;1563060;75;1935;-72
2023/12/24 04:51:25;;;;;;;;;;;17.20;45.10;;;;;;1557976;75;777;-72
2023/12/24 04:53:27;;;;;;;;;;;17.20;45.00;;;;;;1560615;76;792;-71
2023/12/24 04:55:29;;;;;;;;;;;17.20;45.00;;;;;;1569181;74;1165;-73
2023/12/24 04:57:31;;;;;;;;;;;17.20;45.10;;;;;;1582261;74;775;-72
2023/12/24 04:59:33;;;;;;;;;;;17.30;45.20;;;;;;1581264;74;784;-74
2023/12/24 05:01:34;;;;;;;;;;;17.30;45.20;;;;;;1581534;74;760;-72
2023/12/24 05:03:36;;;;;;;;;;;17.20;45.10;;;;;;1573574;74;765;-70
2023/12/24 05:05:38;;;;;;;;;;;17.20;45.10;;;;;;1566098;74;1104;-72
2023/12/24 05:07:40;;;;;;;;;;;17.20;45.10;;;;;;1568189;74;771;-72
2023/12/24 05:09:42;;;;;;;;;;;17.30;45.20;;;;;;1556005;74;1950;-70
2023/12/24 05:11:44;;;;;;;;;;;17.30;45.20;;;;;;1571189;74;748;-72
2023/12/24 05:13:46;;;;;;;;;;;17.30;45.30;;;;;;1576363;74;1171;-72
2023/12/24 05:15:48;;;;;;;;;;;17.20;45.10;;;;;;1590808;74;807;-74
2023/12/24 05:17:49;;;;;;;;;;;17.20;45.00;;;;;;1562398;75;772;-70
2023/12/24 05:19:51;;;;;;;;;;;17.20;45.10;;;;;;1563468;75;785;-71
2023/12/24 05:21:53;;;;;;;;;;;17.20;45.00;;;;;;1563370;75;747;-71
2023/12/24 05:23:56;;;;;;;;;;;17.20;45.10;;;;;;1563508;75;1168;-74
2023/12/24 05:25:58;;;;;;;;;;;17.20;45.10;;;;;;1562130;75;797;-70
2023/12/24 05:28:00;;;;;;;;;;;17.20;45.10;;;;;;1559401;75;760;-72
2023/12/24 05:30:02;;;;;;;;;;;17.20;45.10;;;;;;1563792;75;1940;-70
2023/12/24 05:32:04;;;;;;;;;;;17.20;45.10;;;;;;1561521;75;742;-71
2023/12/24 05:34:06;;;;;;;;;;;17.20;45.10;;;;;;1566742;74;1165;-72
2023/12/24 05:36:10;;;;;;;;;;;17.20;45.20;;;;;;1576782;74;796;-70
2023/12/24 05:38:12;;;;;;;;;;;17.20;45.10;;;;;;1575159;74;1848;-72
2023/12/24 05:40:14;;;;;;;;;;;17.30;45.30;;;;;;1568235;74;802;-71
2023/12/24 05:42:16;;;;;;;;;;;17.30;45.20;;;;;;1564509;74;768;-69
2023/12/24 05:44:17;;;;;;;;;;;17.20;45.10;;;;;;1582008;74;1454;-70
2023/12/24 05:46:20;;;;;;;;;;;17.20;45.20;;;;;;1571035;74;740;-70
2023/12/24 05:48:22;;;;;;;;;;;17.20;45.20;;;;;;1572365;74;1930;-72
2023/12/24 05:50:24;;;;;;;;;;;17.20;45.20;;;;;;1574788;74;764;-69
2023/12/24 05:52:25;;;;;;;;;;;17.20;45.10;;;;;;1560912;74;779;-70
2023/12/24 05:54:27;;;;;;;;;;;17.20;45.10;;;;;;1575586;74;1161;-72
2023/12/24 05:56:29;;;;;;;;;;;17.20;45.10;;;;;;1565385;74;795;-72
2023/12/24 05:58:31;;;;;;;;;;;17.20;45.10;;;;;;1567031;74;694;-72
2023/12/24 06:00:34;;;;;;;;;;;17.30;45.20;;;;;;1575257;74;660;-73
2023/12/24 06:02:36;;;;;;;;;;;17.20;45.20;;;;;;1583621;74;754;-69
2023/12/24 06:04:37;;;;;;;;;;;17.20;45.10;;;;;;1568876;74;1238;-72
2023/12/24 06:06:42;;;;;;;;;;;17.20;45.10;;;;;;1566959;74;967;-71
2023/12/24 06:08:44;;;;;;;;;;;17.20;45.10;;;;;;1562760;74;1922;-72
2023/12/24 06:10:46;;;;;;;;;;;17.20;45.10;;;;;;1559719;74;785;-70
2023/12/24 06:12:51;;;;;;;;;;;17.20;45.10;;;;;;1558465;74;803;-72
2023/12/24 06:14:53;;;;;;;;;;;17.20;45.10;;;;;;1559595;74;1247;-71
2023/12/24 06:16:55;;;;;;;;;;;17.20;45.10;;;;;;1562613;74;757;-72
2023/12/24 06:18:57;;;;;;;;;;;17.20;45.10;;;;;;1560615;74;764;-72
2023/12/24 06:20:59;;;;;;;;;;;17.20;45.10;;;;;;1555496;74;829;-72
2023/12/24 06:23:02;;;;;;;;;;;17.20;45.00;;;;;;1560579;74;760;-71
2023/12/24 06:25:04;;;;;;;;;;;17.20;45.10;;;;;;1564754;74;1168;-70
2023/12/24 06:27:06;;;;;;;;;;;17.20;45.10;;;;;;1568267;74;743;-75
2023/12/24 06:29:08;;;;;;;;;;;17.20;45.20;;;;;;1565697;74;1941;-70
2023/12/24 06:31:10;;;;;;;;;;;17.20;45.10;;;;;;1575979;74;728;-69
2023/12/24 06:33:12;;;;;;;;;;;17.20;45.10;;;;;;1562274;74;744;-72
2023/12/24 06:35:14;;;;;;;;;;;17.20;45.00;;;;;;1564355;74;1175;-72
2023/12/24 06:37:16;;;;;;;;;;;17.20;45.00;;;;;;1546848;76;797;-71
2023/12/24 06:39:17;;;;;;;;;;;17.20;45.00;;;;;;1566253;74;694;-73
2023/12/24 06:41:19;;;;;;;;;;;17.20;45.10;;;;;;1526906;75;1449;-71
2023/12/24 06:43:21;;;;;;;;;;;17.30;45.20;;;;;;1535094;75;774;-70
2023/12/24 06:45:23;;;;;;;;;;;17.20;45.00;;;;;;1538639;75;1162;-72
2023/12/24 06:47:25;;;;;;;;;;;17.20;45.10;;;;;;1523556;75;785;-72
2023/12/24 06:49:27;;;;;;;;;;;17.20;45.10;;;;;;1573253;74;1945;-72
2023/12/24 06:51:29;;;;;;;;;;;17.20;45.00;;;;;;1580770;74;786;-69
2023/12/24 06:53:30;;;;;;;;;;;17.20;45.00;;;;;;1577545;74;782;-74
2023/12/24 06:55:32;;;;;;;;;;;17.20;45.00;;;;;;1559885;74;1159;-69
2023/12/24 06:57:34;;;;;;;;;;;17.20;45.00;;;;;;1557785;74;770;-69
2023/12/24 06:59:36;;;;;;;;;;;17.20;45.10;;;;;;1559155;74;773;-70
2023/12/24 07:01:38;;;;;;;;;;;17.10;45.00;;;;;;1555180;74;723;-70
2023/12/24 07:03:40;;;;;;;;;;;17.20;45.00;;;;;;1562482;74;793;-72
2023/12/24 07:05:42;;;;;;;;;;;17.20;45.00;;;;;;1555087;74;1288;-70
2023/12/24 07:07:44;;;;;;;;;;;17.20;45.00;;;;;;1542821;74;740;-72
2023/12/24 07:09:46;;;;;;;;;;;17.20;45.00;;;;;;1561144;74;1945;-72
2023/12/24 07:11:48;;;;;;;;;;;17.20;45.00;;;;;;1552050;74;803;-72
2023/12/24 07:13:50;;;;;;;;;;;17.20;45.00;;;;;;1552826;74;1176;-73
2023/12/24 07:15:52;;;;;;;;;;;17.20;45.10;;;;;;1558228;74;652;-72
2023/12/24 07:17:53;;;;;;;;;;;17.20;45.00;;;;;;1552668;74;746;-71
2023/12/24 07:19:55;;;;;;;;;;;17.20;45.00;;;;;;1558745;74;784;-72
2023/12/24 07:21:57;;;;;;;;;;;17.20;45.00;;;;;;1560111;74;777;-72
2023/12/24 07:23:59;;;;;;;;;;;17.10;45.00;;;;;;1554863;74;1148;-73
2023/12/24 07:26:01;;;;;;;;;;;17.20;45.00;;;;;;1555646;74;754;-72
2023/12/24 07:28:03;;;;;;;;;;;17.20;45.00;;;;;;1558609;74;780;-71
2023/12/24 07:30:05;;;;;;;;;;;17.20;45.10;;;;;;1559368;74;1928;-71
2023/12/24 07:32:07;;;;;;;;;;;17.20;45.00;;;;;;1549379;74;774;-73
2023/12/24 07:34:09;;;;;;;;;;;17.20;45.00;;;;;;1556462;74;1215;-71
2023/12/24 07:36:11;;;;;;;;;;;17.20;45.00;;;;;;1574353;74;1430;-71
2023/12/24 07:38:13;;;;;;;;;;;17.20;45.00;;;;;;1560477;74;785;-70
2023/12/24 07:40:15;;;;;;;;;;;17.20;45.00;;;;;;1556754;74;777;-72
2023/12/24 07:42:17;;;;;;;;;;;17.20;45.10;;;;;;1562732;74;644;-72
2023/12/24 07:44:18;;;;;;;;;;;17.20;45.00;;;;;;1563109;74;1172;-70
2023/12/24 07:46:21;;;;;;;;;;;17.20;45.00;;;;;;1563271;74;757;-70
2023/12/24 07:48:24;;;;;;;;;;;17.20;45.00;;;;;;1557709;74;770;-72
2023/12/24 07:50:26;;;;;;;;;;;17.20;45.00;;;;;;1558583;74;1935;-72
2023/12/24 07:52:27;;;;;;;;;;;17.20;45.00;;;;;;1560372;74;804;-72
2023/12/24 07:54:29;;;;;;;;;;;17.20;45.10;;;;;;1556929;74;1169;-71
2023/12/24 07:56:31;;;;;;;;;;;17.20;45.10;;;;;;1566095;74;737;-72
2023/12/24 07:58:34;;;;;;;;;;;17.20;45.00;;;;;;1560009;74;758;-73
2023/12/24 08:00:35;;;;;;;;;;;17.20;45.00;;;;;;1558453;74;754;-72
2023/12/24 08:02:37;;;;;;;;;;;17.20;45.00;;;;;;1560905;74;757;-71
2023/12/24 08:04:39;;;;;;;;;;;17.20;45.00;;;;;;1549477;74;1243;-71
2023/12/24 08:06:41;;;;;;;;;;;17.20;45.00;;;;;;1560253;74;786;-72
2023/12/24 08:08:43;;;;;;;;;;;17.20;45.00;;;;;;1563292;74;763;-72
2023/12/24 08:10:45;;;;;;;;;;;17.20;45.00;;;;;;1557607;74;1938;-72
2023/12/24 08:12:47;;;;;;;;;;;17.20;45.10;;;;;;1560702;74;785;-72
2023/12/24 08:14:48;;;;;;;;;;;17.20;45.00;;;;;;1561458;74;1172;-74
2023/12/24 08:16:50;;;;;;;;;;;17.20;45.00;;;;;;1552135;74;738;-72
2023/12/24 08:18:52;;;;;;;;;;;17.20;45.00;;;;;;1556910;74;769;-72
2023/12/24 08:20:54;;;;;;;;;;;17.20;45.10;;;;;;1561917;74;766;-72
2023/12/24 08:22:56;;;;;;;;;;;17.20;45.10;;;;;;1557246;74;734;-70
2023/12/24 08:24:58;;;;;;;;;;;17.20;45.00;;;;;;1561898;74;1152;-68
2023/12/24 08:27:00;;;;;;;;;;;17.20;45.00;;;;;;1559893;74;784;-71
2023/12/24 08:29:02;;;;;;;;;;;17.20;45.00;;;;;;1560891;74;764;-71
2023/12/24 08:31:04;;;;;;;;;;;17.20;45.10;;;;;;1562216;74;1935;-72
2023/12/24 08:33:06;;;;;;;;;;;17.20;45.00;;;;;;1555074;74;1456;-71
2023/12/24 08:35:08;;;;;;;;;;;17.20;45.00;;;;;;1564800;74;1184;-71
2023/12/24 08:37:10;;;;;;;;;;;17.20;45.00;;;;;;1563526;74;661;-72
2023/12/24 08:39:13;;;;;;;;;;;17.20;45.00;;;;;;1560362;74;801;-72
2023/12/24 08:41:15;;;;;;;;;;;17.20;45.00;;;;;;1560740;74;799;-72
2023/12/24 08:43:16;;;;;;;;;;;17.20;45.00;;;;;;1558011;74;764;-72
2023/12/24 08:45:19;;;;;;;;;;;17.20;45.10;;;;;;1552249;74;1169;-71
2023/12/24 08:47:20;;;;;;;;;;;17.20;45.00;;;;;;1557873;74;682;-72
2023/12/24 08:49:23;;;;;;;;;;;17.20;45.00;;;;;;1532136;75;791;-74
2023/12/24 08:51:25;;;;;;;;;;;17.20;45.00;;;;;;1538590;76;760;-70
2023/12/24 08:53:27;;;;;;;;;;;17.20;45.00;;;;;;1535896;75;792;-72
2023/12/24 08:55:29;;;;;;;;;;;17.20;45.00;;;;;;1553195;74;1155;-73
2023/12/24 08:57:31;;;;;;;;;;;17.20;45.00;;;;;;1543757;75;772;-74
2023/12/24 08:59:33;;;;;;;;;;;17.20;45.10;;;;;;1561350;74;786;-72
2023/12/24 09:01:35;;;;;;;;;;;17.20;45.00;;;;;;1579269;74;795;-72
2023/12/24 09:03:37;;;;;;;;;;;17.20;45.10;;;;;;1510808;77;785;-71
2023/12/24 09:05:38;;;;;;;;;;;17.20;45.00;;;;;;1572098;74;1175;-72
2023/12/24 09:07:40;;;;;;;;;;;17.20;45.00;;;;;;1574557;74;785;-69
2023/12/24 09:09:42;;;;;;;;;;;17.20;45.00;;;;;;1573767;74;1928;-70
2023/12/24 09:11:44;;;;;;;;;;;17.20;45.00;;;;;;1563132;74;720;-72
2023/12/24 09:13:46;;;;;;;;;;;17.20;45.10;;;;;;1564011;74;1164;-72
2023/12/24 09:15:48;;;;;;;;;;;17.20;45.00;;;;;;1569960;74;812;-72
2023/12/24 09:17:50;;;;;;;;;;;17.20;45.00;;;;;;1563491;75;792;-69
2023/12/24 09:19:51;;;;;;;;;;;17.20;45.00;;;;;;1559322;75;762;-71
2023/12/24 09:21:54;;;;;;;;;;;17.20;45.10;;;;;;1560236;75;699;-73
2023/12/24 09:23:58;;;;;;;;;;;17.20;45.00;;;;;;1566490;75;1169;-74
2023/12/24 09:26:00;;;;;;;;;;;17.20;45.00;;;;;;1563121;75;770;-70
2023/12/24 09:28:02;;;;;;;;;;;17.20;45.00;;;;;;1564090;74;958;-69
2023/12/24 09:30:04;;;;;;;;;;;17.20;45.00;;;;;;1563206;75;1931;-72
2023/12/24 09:32:06;;;;;;;;;;;17.20;45.00;;;;;;1559397;75;773;-72
2023/12/24 09:34:08;;;;;;;;;;;17.20;45.00;;;;;;1555631;74;1177;-72
2023/12/24 09:36:09;;;;;;;;;;;17.20;45.10;;;;;;1562731;75;764;-72
2023/12/24 09:38:11;;;;;;;;;;;17.20;45.10;;;;;;1562500;75;770;-73
2023/12/24 09:40:13;;;;;;;;;;;17.20;45.10;;;;;;1559493;74;747;-72
2023/12/24 09:42:15;;;;;;;;;;;17.30;45.30;;;;;;1554729;75;759;-72
2023/12/24 09:44:17;;;;;;;;;;;17.20;45.00;;;;;;1560627;75;1191;-70
2023/12/24 09:46:19;;;;;;;;;;;17.20;45.10;;;;;;1561548;74;762;-71
2023/12/24 09:48:21;;;;;;;;;;;17.20;45.00;;;;;;1566015;74;764;-72
2023/12/24 09:50:22;;;;;;;;;;;17.20;45.10;;;;;;1557688;74;1932;-73
2023/12/24 09:52:26;;;;;;;;;;;17.20;45.10;;;;;;1554681;74;784;-71
2023/12/24 09:54:28;;;;;;;;;;;17.20;45.10;;;;;;1561798;74;1187;-72
2023/12/24 09:56:29;;;;;;;;;;;17.20;45.10;;;;;;1561048;74;844;-73
2023/12/24 09:58:31;;;;;;;;;;;17.20;45.00;;;;;;1550511;74;665;-72
2023/12/24 10:00:34;;;;;;;;;;;17.20;45.10;;;;;;1563272;74;770;-74
2023/12/24 10:02:36;;;;;;;;;;;17.20;45.00;;;;;;1558545;74;749;-72
2023/12/24 10:04:38;;;;;;;;;;;17.20;45.10;;;;;;1558801;74;1232;-69
2023/12/24 10:06:54;;;;;;;;;;;17.20;45.10;;;;;;1556408;74;789;-72
2023/12/24 10:08:55;;;;;;;;;;;17.20;45.10;;;;;;1561737;74;674;-69
2023/12/24 10:10:58;;;;;;;;;;;17.20;45.10;;;;;;1558860;74;1939;-72
2023/12/24 10:13:01;;;;;;;;;;;17.20;45.20;;;;;;1559950;74;812;-69
2023/12/24 10:15:03;;;;;;;;;;;17.20;45.20;;;;;;1554577;74;1212;-71
2023/12/24 10:17:05;;;;;;;;;;;17.20;45.10;;;;;;1566014;74;770;-71
2023/12/24 10:19:07;;;;;;;;;;;17.20;45.10;;;;;;1556717;74;747;-72
2023/12/24 10:21:09;;;;;;;;;;;17.30;45.20;;;;;;1556396;74;768;-70
2023/12/24 10:23:11;;;;;;;;;;;17.20;45.10;;;;;;1557739;74;776;-72
2023/12/24 10:25:15;;;;;;;;;;;17.20;45.10;;;;;;1561315;74;1426;-73
2023/12/24 10:27:17;;;;;;;;;;;17.30;45.20;;;;;;1559570;74;769;-72
2023/12/24 10:29:22;;;;;;;;;;;17.20;45.00;;;;;;1560645;74;755;-69
2023/12/24 10:31:24;;;;;;;;;;;17.20;45.10;;;;;;1561069;74;1923;-72
2023/12/24 10:33:26;;;;;;;;;;;17.20;45.10;;;;;;1564097;74;776;-72
2023/12/24 10:35:29;;;;;;;;;;;17.20;45.10;;;;;;1566902;74;1166;-72
2023/12/24 10:37:31;;;;;;;;;;;17.20;45.10;;;;;;1553634;74;773;-69
2023/12/24 10:39:35;;;;;;;;;;;17.20;45.10;;;;;;1564869;74;751;-69
2023/12/24 10:41:36;;;;;;;;;;;17.20;45.00;;;;;;1569839;74;1589;-71
2023/12/24 10:43:38;;;;;;;;;;;17.20;45.10;;;;;;1577208;74;673;-74
2023/12/24 10:45:40;;;;;;;;;;;17.20;45.10;;;;;;1573326;74;1169;-71
2023/12/24 10:47:42;;;;;;;;;;;17.20;45.00;;;;;;1558423;74;665;-69
2023/12/24 10:49:44;;;;;;;;;;;17.20;45.10;;;;;;1567032;74;734;-72
2023/12/24 10:51:46;;;;;;;;;;;17.20;45.10;;;;;;1587645;73;1937;-69
2023/12/24 10:53:47;;;;;;;;;;;17.20;45.10;;;;;;1601050;73;1252;-71
2023/12/24 10:56:05;;;;;;;;;;;17.20;45.10;;;;;;1594638;73;790;-70
2023/12/24 10:58:20;;;;;;;;;;;17.20;45.10;;;;;;1605081;73;771;-72
2023/12/24 11:00:22;;;;;;;;;;;17.20;45.10;;;;;;1606396;73;1824;-72
2023/12/24 11:02:24;;;;;;;;;;;17.20;45.20;;;;;;1606395;73;654;-72
2023/12/24 11:04:49;;;;;;;;;;;17.30;45.20;;;;;;1594008;73;1171;-72
2023/12/24 11:06:47;;;;;;;;;;;17.20;45.10;;;;;;1606959;73;1557;-69
2023/12/24 11:08:49;;;;;;;;;;;17.20;45.10;;;;;;1603393;73;790;-73
2023/12/24 11:10:54;;;;;;;;;;;17.30;45.20;;;;;;1601797;73;1938;-72
2023/12/24 11:12:56;;;;;;;;;;;17.20;45.00;;;;;;1610300;73;798;-71
2023/12/24 11:14:58;;;;;;;;;;;17.20;45.10;;;;;;1605842;73;1249;-72
2023/12/24 11:17:00;;;;;;;;;;;17.20;45.10;;;;;;1605104;73;741;-72
2023/12/24 11:19:02;;;;;;;;;;;17.20;45.10;;;;;;1601319;73;766;-73
2023/12/24 11:21:04;;;;;;;;;;;17.20;45.10;;;;;;1592526;73;664;-73
2023/12/24 11:23:09;;;;;;;;;;;17.20;45.10;;;;;;1598285;73;770;-72
2023/12/24 11:25:17;;;;;;;;;;;17.20;45.10;;;;;;1606946;73;1180;-71
2023/12/24 11:27:18;;;;;;;;;;;17.20;45.10;;;;;;1599136;73;779;-71
2023/12/24 11:29:38;;;;;;;;;;;17.20;45.10;;;;;;1590915;74;750;-69
2023/12/24 11:31:40;;;;;;;;;;;17.20;45.20;;;;;;1592783;73;1943;-71
2023/12/24 11:33:45;;;;;;;;;;;17.20;45.10;;;;;;1598921;73;669;-69
2023/12/24 11:35:53;;;;;;;;;;;17.20;45.20;;;;;;1616046;73;797;-70
2023/12/24 11:37:55;;;;;;;;;;;17.20;45.10;;;;;;1594725;73;745;-72
2023/12/24 11:40:04;;;;;;;;;;;17.20;45.20;;;;;;1601683;73;764;-72
2023/12/24 11:42:06;;;;;;;;;;;17.20;45.10;;;;;;1605900;73;719;-71
2023/12/24 11:44:08;;;;;;;;;;;17.20;45.10;;;;;;1592009;73;1251;-72
2023/12/24 11:46:10;;;;;;;;;;;17.30;45.30;;;;;;1604443;73;775;-73
2023/12/24 11:48:12;;;;;;;;;;;17.20;45.10;;;;;;1598480;73;768;-70
2023/12/24 11:50:14;;;;;;;;;;;17.20;45.20;;;;;;1597175;73;761;-71
2023/12/24 11:52:16;;;;;;;;;;;17.20;45.20;;;;;;1602582;73;1957;-71
2023/12/24 11:54:19;;;;;;;;;;;17.20;45.20;;;;;;1596460;73;1174;-71
2023/12/24 11:56:21;;;;;;;;;;;17.20;45.10;;;;;;1607246;73;782;-72
2023/12/24 11:58:23;;;;;;;;;;;17.20;45.20;;;;;;1617092;73;752;-72
2023/12/24 12:00:25;;;;;;;;;;;17.20;45.20;;;;;;1612533;73;792;-71
2023/12/24 12:02:27;;;;;;;;;;;17.30;45.30;;;;;;1617379;73;787;-70
2023/12/24 12:04:29;;;;;;;;;;;17.20;45.20;;;;;;1597623;73;1167;-72
2023/12/24 12:06:31;;;;;;;;;;;17.20;45.10;;;;;;1587672;73;770;-70
2023/12/24 12:08:33;;;;;;;;;;;17.30;45.30;;;;;;1596963;73;755;-69